Time;durP1;ratioP1;P1;durP2;ratioP2;P2;SDS_P1;SDS_P2;PMS_P1;PMS_P2;Temp;Humidity;BMP_temperature;BMP_pressure;BME280_temperature;BME280_humidity;BME280_pressure;Samples;Min_cycle;Max_cycle;Signal;HPM_P1;HPM_P2
2022/06/03 00:02:34;;;;;;;6.28;4.40;;;;;;;;;;5000386;28;20030;-83
2022/06/03 00:05:15;;;;;;;7.70;4.47;;;;;;;;;;4977028;28;20047;-83
2022/06/03 00:08:00;;;;;;;5.75;4.80;;;;;;;;;;4997625;28;20030;-83
2022/06/03 00:10:53;;;;;;;5.68;4.10;;;;;;;;;;4996965;28;20046;-83
2022/06/03 00:13:31;;;;;;;5.97;4.63;;;;;;;;;;4973509;28;20034;-83
2022/06/03 00:16:10;;;;;;;5.95;4.35;;;;;;;;;;5001288;28;20035;-83
2022/06/03 00:18:42;;;;;;;6.80;4.13;;;;;;;;;;5001114;28;20015;-83
2022/06/03 00:21:09;;;;;;;6.00;4.03;;;;;;;;;;5000525;28;20033;-83
2022/06/03 00:23:47;;;;;;;6.85;4.10;;;;;;;;;;5000493;28;20033;-83
2022/06/03 00:26:32;;;;;;;5.63;4.15;;;;;;;;;;5004290;28;20022;-83
2022/06/03 00:28:58;;;;;;;6.05;4.10;;;;;;;;;;5004410;28;20117;-83
2022/06/03 00:31:30;;;;;;;6.45;4.10;;;;;;;;;;5018698;28;20104;-82
2022/06/03 00:33:56;;;;;;;5.80;3.95;;;;;;;;;;5004147;28;20555;-83
2022/06/03 00:36:33;;;;;;;7.25;4.88;;;;;;;;;;5003914;28;20022;-84
2022/06/03 00:39:18;;;;;;;5.30;3.95;;;;;;;;;;5003038;28;20101;-83
2022/06/03 00:41:50;;;;;;;6.32;4.40;;;;;;;;;;5002949;28;20045;-83
2022/06/03 00:44:42;;;;;;;5.75;4.05;;;;;;;;;;5004402;28;20140;-83
2022/06/03 00:47:08;;;;;;;5.30;3.92;;;;;;;;;;5001275;28;21470;-83
2022/06/03 00:49:34;;;;;;;5.60;4.15;;;;;;;;;;5004282;28;20034;-83
2022/06/03 00:52:19;;;;;;;6.03;4.40;;;;;;;;;;5002581;28;20080;-83
2022/06/03 00:54:45;;;;;;;6.88;4.38;;;;;;;;;;5002423;28;20486;-83
2022/06/03 00:57:30;;;;;;;6.53;4.25;;;;;;;;;;5003849;28;20109;-83
2022/06/03 01:00:15;;;;;;;5.93;3.83;;;;;;;;;;5019420;28;20026;-83
2022/06/03 01:02:41;;;;;;;6.05;3.75;;;;;;;;;;4997068;28;20033;-83
2022/06/03 01:05:19;;;;;;;6.07;4.05;;;;;;;;;;5003486;28;20026;-83
2022/06/03 01:08:01;;;;;;;5.25;3.55;;;;;;;;;;5003654;28;20019;-83
2022/06/03 01:10:36;;;;;;;5.35;3.75;;;;;;;;;;5002487;28;20030;-83
2022/06/03 01:13:21;;;;;;;5.10;3.60;;;;;;;;;;5002275;28;20097;-83
2022/06/03 01:15:48;;;;;;;5.65;3.90;;;;;;;;;;5003920;28;20030;-83
2022/06/03 01:18:34;;;;;;;6.30;3.67;;;;;;;;;;5003049;28;20030;-83
2022/06/03 01:21:00;;;;;;;6.43;3.97;;;;;;;;;;5001359;28;20408;-83
2022/06/03 01:23:47;;;;;;;5.15;3.80;;;;;;;;;;4998620;28;20045;-83
2022/06/03 01:26:28;;;;;;;5.35;4.00;;;;;;;;;;5013757;28;20033;-83
2022/06/03 01:29:11;;;;;;;5.50;3.83;;;;;;;;;;4998372;28;20027;-83
2022/06/03 01:31:55;;;;;;;6.85;4.10;;;;;;;;;;4997558;28;20484;-83
2022/06/03 01:34:24;;;;;;;5.20;3.67;;;;;;;;;;4997130;28;20034;-83
2022/06/03 01:36:56;;;;;;;5.53;4.05;;;;;;;;;;4997420;28;20032;-83
2022/06/03 01:39:34;;;;;;;7.35;4.15;;;;;;;;;;4997781;28;20026;-83
2022/06/03 01:42:15;;;;;;;5.20;3.90;;;;;;;;;;5003201;28;20090;-84
2022/06/03 01:45:00;;;;;;;5.30;3.53;;;;;;;;;;5017803;28;20022;-84
2022/06/03 01:47:38;;;;;;;6.15;4.00;;;;;;;;;;5017318;28;20110;-84
2022/06/03 01:50:23;;;;;;;6.43;4.20;;;;;;;;;;5017115;28;20094;-86
2022/06/03 01:52:56;;;;;;;6.35;4.38;;;;;;;;;;5017774;28;20015;-85
2022/06/03 01:55:25;;;;;;;5.63;3.70;;;;;;;;;;5017575;28;20046;-85
2022/06/03 01:58:06;;;;;;;5.70;4.20;;;;;;;;;;5001670;28;20034;-84
2022/06/03 02:00:33;;;;;;;4.72;3.55;;;;;;;;;;4997108;28;20385;-83
2022/06/03 02:03:18;;;;;;;6.15;3.42;;;;;;;;;;4998133;28;20042;-83
2022/06/03 02:06:03;;;;;;;5.78;4.15;;;;;;;;;;4999240;28;20042;-83
2022/06/03 02:08:49;;;;;;;5.38;3.75;;;;;;;;;;5014174;28;20121;-84
2022/06/03 02:11:30;;;;;;;5.10;3.95;;;;;;;;;;4987033;28;20061;-83
2022/06/03 02:13:59;;;;;;;4.90;3.75;;;;;;;;;;5000986;28;20030;-83
2022/06/03 02:16:44;;;;;;;5.75;4.05;;;;;;;;;;4997957;28;20555;-83
2022/06/03 02:19:25;;;;;;;5.68;4.47;;;;;;;;;;4996556;28;20018;-83
2022/06/03 02:22:14;;;;;;;6.10;4.35;;;;;;;;;;5012721;28;20081;-83
2022/06/03 02:24:40;;;;;;;6.32;4.20;;;;;;;;;;4978245;28;20046;-84
2022/06/03 02:27:18;;;;;;;5.78;4.55;;;;;;;;;;4998396;28;20041;-83
2022/06/03 02:32:39;;;;;;;6.57;4.60;;;;;;;;;;4996764;28;20041;-85
2022/06/03 02:35:15;;;;;;;6.15;4.35;;;;;;;;;;4996380;28;20038;-83
2022/06/03 02:37:49;;;;;;;5.97;4.45;;;;;;;;;;4997223;28;20035;-81
2022/06/03 02:40:23;;;;;;;6.60;4.70;;;;;;;;;;5007808;28;20018;-84
2022/06/03 02:42:52;;;;;;;6.20;4.30;;;;;;;;;;5009175;28;20084;-83
2022/06/03 02:45:27;;;;;;;5.70;4.40;;;;;;;;;;4997622;28;20096;-83
2022/06/03 02:47:59;;;;;;;6.97;4.90;;;;;;;;;;4997138;28;20160;-83
2022/06/03 02:50:34;;;;;;;6.55;4.88;;;;;;;;;;4995940;28;20018;-83
2022/06/03 02:53:17;;;;;;;6.75;4.55;;;;;;;;;;4995839;28;20031;-83
2022/06/03 02:55:43;;;;;;;6.45;4.63;;;;;;;;;;4996570;28;20045;-82
2022/06/03 02:58:18;;;;;;;5.60;4.32;;;;;;;;;;5012720;28;20034;-83
2022/06/03 03:00:53;;;;;;;6.38;5.13;;;;;;;;;;5010482;28;20049;-83
2022/06/03 03:03:37;;;;;;;8.68;4.80;;;;;;;;;;4995663;28;20129;-82
2022/06/03 03:06:22;;;;;;;7.70;4.75;;;;;;;;;;4997267;28;20026;-83
2022/06/03 03:09:07;;;;;;;7.05;4.65;;;;;;;;;;5011806;28;20476;-84
2022/06/03 03:11:36;;;;;;;7.35;4.80;;;;;;;;;;4993473;28;20026;-83
2022/06/03 03:14:08;;;;;;;6.18;4.63;;;;;;;;;;4995058;28;20058;-83
2022/06/03 03:16:54;;;;;;;7.38;4.85;;;;;;;;;;4997623;28;20045;-83
2022/06/03 03:19:35;;;;;;;7.18;4.78;;;;;;;;;;4984229;28;20463;-84
2022/06/03 03:22:07;;;;;;;6.22;4.60;;;;;;;;;;4992415;28;20062;-81
2022/06/03 03:24:33;;;;;;;6.72;4.88;;;;;;;;;;4989237;28;20094;-83
2022/06/03 03:27:02;;;;;;;7.38;5.47;;;;;;;;;;4992590;28;20023;-83
2022/06/03 03:29:48;;;;;;;6.60;5.13;;;;;;;;;;4991120;28;20033;-83
2022/06/03 03:32:14;;;;;;;6.63;5.13;;;;;;;;;;4995438;28;20438;-83
2022/06/03 03:34:44;;;;;;;5.95;4.95;;;;;;;;;;4997098;28;20046;-83
2022/06/03 03:37:29;;;;;;;7.95;5.18;;;;;;;;;;4996890;28;20165;-84
2022/06/03 03:40:11;;;;;;;7.22;5.03;;;;;;;;;;4994987;28;20030;-83
2022/06/03 03:42:43;;;;;;;6.10;4.80;;;;;;;;;;4995540;28;20026;-82
2022/06/03 03:45:24;;;;;;;7.20;5.30;;;;;;;;;;4997477;28;20027;-81
2022/06/03 03:48:09;;;;;;;6.55;5.18;;;;;;;;;;4995425;28;20138;-81
2022/06/03 03:50:35;;;;;;;9.00;5.43;;;;;;;;;;4988914;28;20121;-83
2022/06/03 03:53:19;;;;;;;7.88;5.00;;;;;;;;;;4996084;28;20061;-82
2022/06/03 03:55:45;;;;;;;7.47;5.32;;;;;;;;;;4991747;28;20586;-82
2022/06/03 03:58:15;;;;;;;7.90;5.50;;;;;;;;;;4996947;28;20030;-83
2022/06/03 04:00:47;;;;;;;6.80;5.80;;;;;;;;;;5000074;28;20018;-84
2022/06/03 04:03:40;;;;;;;7.17;5.03;;;;;;;;;;5001534;28;20092;-83
2022/06/03 04:06:25;;;;;;;7.72;5.65;;;;;;;;;;4998654;28;20034;-83
2022/06/03 04:08:54;;;;;;;7.57;4.90;;;;;;;;;;5000102;28;20504;-83
2022/06/03 04:11:32;;;;;;;10.18;6.03;;;;;;;;;;5001219;28;20031;-83
2022/06/03 04:14:25;;;;;;;6.53;5.00;;;;;;;;;;4994378;28;20046;-83
2022/06/03 04:16:54;;;;;;;6.40;5.10;;;;;;;;;;4988083;28;20042;-83
2022/06/03 04:19:39;;;;;;;10.57;5.35;;;;;;;;;;4999155;28;20049;-83
2022/06/03 04:22:16;;;;;;;8.35;6.07;;;;;;;;;;5008192;28;20492;-84
2022/06/03 04:24:52;;;;;;;11.18;6.45;;;;;;;;;;5001375;28;20033;-83
2022/06/03 04:27:38;;;;;;;7.78;5.10;;;;;;;;;;4999504;28;20030;-83
2022/06/03 04:30:15;;;;;;;8.35;5.38;;;;;;;;;;4988375;28;20011;-85
2022/06/03 04:32:59;;;;;;;11.18;5.85;;;;;;;;;;5008167;28;20614;-84
2022/06/03 04:35:44;;;;;;;6.32;5.15;;;;;;;;;;4986081;28;20086;-84
2022/06/03 04:38:13;;;;;;;6.22;5.10;;;;;;;;;;5000153;28;20027;-83
2022/06/03 04:40:54;;;;;;;7.50;4.97;;;;;;;;;;5000014;28;20456;-83
2022/06/03 04:43:39;;;;;;;7.47;5.18;;;;;;;;;;4997843;28;20026;-84
2022/06/03 04:46:24;;;;;;;11.85;6.15;;;;;;;;;;4997196;28;20121;-87
2022/06/03 04:48:50;;;;;;;6.28;4.47;;;;;;;;;;4981848;28;20031;-84
2022/06/03 04:51:19;;;;;;;6.35;4.65;;;;;;;;;;4982744;28;20027;-83
2022/06/03 04:53:48;;;;;;;5.82;4.65;;;;;;;;;;4988466;28;20408;-84
2022/06/03 04:56:33;;;;;;;6.68;5.25;;;;;;;;;;4997897;28;20046;-84
2022/06/03 04:59:15;;;;;;;6.78;4.95;;;;;;;;;;5014058;28;20022;-84
2022/06/03 05:01:54;;;;;;;8.52;5.00;;;;;;;;;;4997661;28;20023;-84
2022/06/03 05:04:38;;;;;;;6.90;4.88;;;;;;;;;;4999393;28;20019;-84
2022/06/03 05:07:17;;;;;;;7.43;5.00;;;;;;;;;;5003103;28;20378;-84
2022/06/03 05:09:56;;;;;;;7.53;4.90;;;;;;;;;;4996351;28;20536;-84
2022/06/03 05:12:22;;;;;;;6.63;5.05;;;;;;;;;;4993100;28;20033;-83
2022/06/03 05:14:50;;;;;;;7.32;5.30;;;;;;;;;;5002139;28;20034;-83
2022/06/03 05:17:31;;;;;;;6.53;5.00;;;;;;;;;;5007323;28;20026;-84
2022/06/03 05:20:06;;;;;;;7.90;5.13;;;;;;;;;;5011041;28;20030;-83
2022/06/03 05:22:35;;;;;;;7.10;5.10;;;;;;;;;;5011310;28;20104;-84
2022/06/03 05:25:01;;;;;;;6.93;5.50;;;;;;;;;;5007597;28;20029;-84
2022/06/03 05:27:30;;;;;;;7.60;5.43;;;;;;;;;;5009311;28;20023;-83
2022/06/03 05:30:08;;;;;;;7.50;4.88;;;;;;;;;;5007089;28;20034;-84
2022/06/03 05:32:49;;;;;;;5.97;5.03;;;;;;;;;;5004768;28;20026;-84
2022/06/03 05:35:19;;;;;;;6.60;4.72;;;;;;;;;;5004573;28;20037;-83
2022/06/03 05:38:00;;;;;;;7.00;5.05;;;;;;;;;;5005286;28;20031;-83
2022/06/03 05:40:50;;;;;;;8.02;5.70;;;;;;;;;;5008294;28;20023;-84
2022/06/03 05:43:31;;;;;;;8.82;5.40;;;;;;;;;;5006127;28;20030;-84
2022/06/03 05:46:02;;;;;;;9.80;5.85;;;;;;;;;;5005129;28;20037;-84
2022/06/03 05:48:31;;;;;;;8.00;5.53;;;;;;;;;;5007099;28;20022;-81
2022/06/03 05:51:16;;;;;;;9.60;5.40;;;;;;;;;;5009020;28;20030;-79
2022/06/03 05:53:52;;;;;;;8.48;5.00;;;;;;;;;;5004141;28;20022;-80
2022/06/03 05:56:18;;;;;;;7.88;6.00;;;;;;;;;;4998316;28;20054;-83
2022/06/03 05:58:53;;;;;;;7.50;5.35;;;;;;;;;;5007569;28;20061;-83
2022/06/03 06:01:41;;;;;;;10.20;5.68;;;;;;;;;;5007552;28;20031;-84
2022/06/03 06:04:14;;;;;;;8.05;5.95;;;;;;;;;;5004161;28;20034;-83
2022/06/03 06:06:59;;;;;;;10.32;5.28;;;;;;;;;;5004567;28;20454;-83
2022/06/03 06:09:31;;;;;;;10.02;6.00;;;;;;;;;;4995430;28;20030;-82
2022/06/03 06:12:12;;;;;;;9.20;5.45;;;;;;;;;;4992259;28;20022;-82
2022/06/03 06:14:44;;;;;;;10.13;6.00;;;;;;;;;;5009450;28;20030;-82
2022/06/03 06:17:29;;;;;;;8.43;5.73;;;;;;;;;;4995789;28;20030;-82
2022/06/03 06:19:58;;;;;;;8.88;5.68;;;;;;;;;;4995651;28;20046;-81
2022/06/03 06:22:30;;;;;;;16.20;6.80;;;;;;;;;;5003028;28;20058;-80
2022/06/03 06:25:05;;;;;;;7.00;5.25;;;;;;;;;;5000859;28;20034;-80
2022/06/03 06:27:50;;;;;;;10.57;5.50;;;;;;;;;;5004359;28;20519;-80
2022/06/03 06:30:51;;;;;;;6.32;4.72;;;;;;;;;;5003853;28;20049;-79
2022/06/03 06:33:17;;;;;;;6.50;4.85;;;;;;;;;;4960415;28;20027;-80
2022/06/03 06:35:52;;;;;;;7.32;5.05;;;;;;;;;;4993755;28;20041;-80
2022/06/03 06:38:22;;;;;;;7.93;5.10;;;;;;;;;;5003574;28;20030;-79
2022/06/03 06:40:57;;;;;;;10.77;6.65;;;;;;;;;;5001628;28;20034;-79
2022/06/03 06:43:32;;;;;;;7.30;5.50;;;;;;;;;;5003153;28;20053;-79
2022/06/03 06:46:19;;;;;;;6.57;4.85;;;;;;;;;;5002113;28;20022;-79
2022/06/03 06:49:00;;;;;;;7.53;5.18;;;;;;;;;;5001830;28;20030;-79
2022/06/03 06:51:33;;;;;;;8.13;5.25;;;;;;;;;;4998105;28;20018;-78
2022/06/03 06:54:06;;;;;;;11.35;5.47;;;;;;;;;;4996517;28;20026;-80
2022/06/03 06:56:39;;;;;;;5.95;4.55;;;;;;;;;;4999845;28;20073;-79
2022/06/03 06:59:11;;;;;;;7.00;5.60;;;;;;;;;;4998161;28;20512;-81
2022/06/03 07:01:40;;;;;;;7.20;5.72;;;;;;;;;;5000069;28;20045;-80
2022/06/03 07:04:14;;;;;;;8.95;5.78;;;;;;;;;;4998395;28;20459;-80
2022/06/03 07:06:40;;;;;;;8.30;5.65;;;;;;;;;;4999248;28;20106;-79
2022/06/03 07:09:20;;;;;;;6.20;5.18;;;;;;;;;;4996596;28;20076;-80
2022/06/03 07:11:54;;;;;;;8.80;6.18;;;;;;;;;;4989369;28;20023;-80
2022/06/03 07:14:25;;;;;;;9.43;6.20;;;;;;;;;;4995293;28;20037;-80
2022/06/03 07:20:21;;;;;;;7.22;6.38;;;;;;;;;;4997789;28;20073;-78
2022/06/03 07:22:55;;;;;;;10.75;6.47;;;;;;;;;;4995876;28;20061;-78
2022/06/03 07:25:40;;;;;;;7.35;5.90;;;;;;;;;;4987950;28;20034;-79
2022/06/03 07:28:06;;;;;;;8.73;5.45;;;;;;;;;;5014926;28;20591;-79
2022/06/03 07:30:41;;;;;;;9.27;6.80;;;;;;;;;;4996878;28;20105;-79
2022/06/03 07:33:13;;;;;;;7.78;6.35;;;;;;;;;;5001226;28;20104;-78
2022/06/03 07:35:41;;;;;;;6.97;5.97;;;;;;;;;;5001026;28;20072;-83
2022/06/03 07:38:07;;;;;;;8.05;6.03;;;;;;;;;;5001749;28;20022;-79
2022/06/03 07:40:47;;;;;;;8.57;6.75;;;;;;;;;;5002584;28;20026;-79
2022/06/03 07:43:16;;;;;;;7.45;5.68;;;;;;;;;;5003724;28;20038;-78
2022/06/03 07:45:42;;;;;;;8.25;6.10;;;;;;;;;;5003122;28;20069;-80
2022/06/03 07:48:16;;;;;;;7.03;6.00;;;;;;;;;;5003826;28;20030;-81
2022/06/03 07:51:05;;;;;;;7.53;6.35;;;;;;;;;;5003911;28;20023;-80
2022/06/03 07:53:46;;;;;;;9.30;5.80;;;;;;;;;;5004771;28;20026;-81
2022/06/03 07:56:18;;;;;;;8.23;5.85;;;;;;;;;;5002066;28;20453;-81
2022/06/03 07:58:46;;;;;;;8.88;5.60;;;;;;;;;;5002141;28;20444;-81
2022/06/03 08:01:25;;;;;;;7.55;5.18;;;;;;;;;;5003701;28;20023;-80
2022/06/03 08:03:53;;;;;;;8.50;5.93;;;;;;;;;;5003861;28;20045;-81
2022/06/03 08:06:26;;;;;;;6.22;5.35;;;;;;;;;;5004228;28;20042;-80
2022/06/03 08:11:41;;;;;;;6.97;5.70;;;;;;;;;;5004206;28;20041;-81
2022/06/03 08:14:08;;;;;;;7.75;5.57;;;;;;;;;;5003902;28;20081;-80
2022/06/03 08:16:34;;;;;;;7.18;5.40;;;;;;;;;;5005525;28;20507;-81
2022/06/03 08:19:03;;;;;;;6.78;5.65;;;;;;;;;;5003483;28;20042;-81
2022/06/03 08:21:33;;;;;;;7.93;5.53;;;;;;;;;;5005871;28;20038;-81
2022/06/03 08:24:00;;;;;;;7.35;5.25;;;;;;;;;;4993990;28;20444;-82
2022/06/03 08:26:27;;;;;;;7.05;5.30;;;;;;;;;;4987078;28;20018;-81
2022/06/03 08:29:08;;;;;;;6.97;5.53;;;;;;;;;;5003356;28;20015;-82
2022/06/03 08:31:35;;;;;;;8.77;5.78;;;;;;;;;;5005371;28;20026;-80
2022/06/03 08:34:02;;;;;;;7.15;6.10;;;;;;;;;;5003409;28;20040;-79
2022/06/03 08:36:31;;;;;;;6.10;5.45;;;;;;;;;;5003219;28;20030;-78
2022/06/03 08:39:06;;;;;;;7.53;5.93;;;;;;;;;;5016708;28;20014;-81
2022/06/03 08:41:45;;;;;;;6.32;5.47;;;;;;;;;;5005096;28;20050;-81
2022/06/03 08:44:22;;;;;;;7.25;5.25;;;;;;;;;;5001812;28;20073;-79
2022/06/03 08:47:12;;;;;;;6.65;4.75;;;;;;;;;;5002042;28;20420;-80
2022/06/03 08:50:01;;;;;;;7.30;5.53;;;;;;;;;;5003120;28;20493;-81
2022/06/03 08:53:00;;;;;;;6.82;5.75;;;;;;;;;;5001610;28;20041;-82
2022/06/03 08:55:35;;;;;;;5.88;4.53;;;;;;;;;;4994761;28;20143;-79
2022/06/03 08:58:06;;;;;;;8.27;4.63;;;;;;;;;;5003481;28;20099;-78
2022/06/03 09:00:53;;;;;;;6.13;4.07;;;;;;;;;;5003928;28;20542;-80
2022/06/03 09:03:20;;;;;;;8.35;4.55;;;;;;;;;;4999967;28;20079;-78
2022/06/03 09:06:12;;;;;;;5.50;4.25;;;;;;;;;;4998254;28;20388;-80
2022/06/03 09:08:46;;;;;;;6.03;4.25;;;;;;;;;;4999185;28;20034;-80
2022/06/03 09:11:20;;;;;;;5.78;4.20;;;;;;;;;;5003174;28;20022;-80
2022/06/03 09:13:47;;;;;;;6.00;4.88;;;;;;;;;;4982038;28;20019;-80
2022/06/03 09:16:14;;;;;;;6.40;4.80;;;;;;;;;;4999451;28;20242;-81
2022/06/03 09:19:01;;;;;;;6.78;4.68;;;;;;;;;;4999126;28;20027;-81
2022/06/03 09:21:32;;;;;;;5.15;4.15;;;;;;;;;;5001788;28;20030;-80
2022/06/03 09:24:29;;;;;;;5.25;4.00;;;;;;;;;;5000317;28;20033;-80
2022/06/03 09:26:59;;;;;;;7.38;4.50;;;;;;;;;;5004179;28;20165;-80
2022/06/03 09:29:26;;;;;;;6.15;4.55;;;;;;;;;;5000767;28;20471;-79
2022/06/03 09:31:56;;;;;;;5.97;4.50;;;;;;;;;;4983032;28;20067;-80
2022/06/03 09:34:25;;;;;;;7.78;4.88;;;;;;;;;;4989688;28;20038;-78
2022/06/03 09:36:51;;;;;;;7.55;4.95;;;;;;;;;;4999358;28;20027;-80
2022/06/03 09:39:19;;;;;;;6.15;4.53;;;;;;;;;;5001787;28;20034;-82
2022/06/03 09:41:48;;;;;;;6.70;4.30;;;;;;;;;;5001847;28;20023;-81
2022/06/03 09:44:15;;;;;;;8.07;4.60;;;;;;;;;;5001476;28;20026;-81
2022/06/03 09:46:42;;;;;;;5.93;4.50;;;;;;;;;;4998744;28;20532;-81
2022/06/03 09:49:09;;;;;;;6.57;4.90;;;;;;;;;;5001073;28;20068;-82
2022/06/03 09:52:00;;;;;;;8.63;5.50;;;;;;;;;;5001464;28;20523;-80
2022/06/03 09:54:28;;;;;;;7.85;4.75;;;;;;;;;;5000015;28;20023;-81
2022/06/03 09:56:56;;;;;;;6.07;4.63;;;;;;;;;;4999994;28;20042;-79
2022/06/03 09:59:23;;;;;;;6.82;5.00;;;;;;;;;;5000338;28;20038;-79
2022/06/03 10:01:49;;;;;;;6.90;4.80;;;;;;;;;;5002583;28;20539;-78
2022/06/03 10:04:17;;;;;;;9.05;4.55;;;;;;;;;;4989253;28;20069;-80
2022/06/03 10:06:46;;;;;;;6.90;4.53;;;;;;;;;;4993774;28;20520;-80
2022/06/03 10:17:47;;;;;;;6.45;4.63;;;;;;;;;;4999633;28;20093;-78
2022/06/03 10:20:13;;;;;;;4.68;3.45;;;;;;;;;;5000437;28;20076;-81
2022/06/03 10:22:40;;;;;;;6.50;3.70;;;;;;;;;;5001643;28;20030;-80
2022/06/03 10:25:07;;;;;;;5.97;3.47;;;;;;;;;;5001985;28;20022;-80
2022/06/03 10:27:33;;;;;;;4.90;3.65;;;;;;;;;;5000347;28;20380;-80
2022/06/03 10:30:00;;;;;;;4.90;3.38;;;;;;;;;;5000817;28;20067;-79
2022/06/03 10:32:26;;;;;;;6.78;3.42;;;;;;;;;;5000728;28;20034;-80
2022/06/03 10:34:57;;;;;;;5.18;3.83;;;;;;;;;;5001294;28;20030;-80
2022/06/03 10:37:26;;;;;;;6.00;3.58;;;;;;;;;;5015609;28;20045;-81
2022/06/03 10:39:55;;;;;;;9.00;3.75;;;;;;;;;;5000984;28;20018;-80
2022/06/03 10:42:22;;;;;;;7.15;3.60;;;;;;;;;;4999454;28;20026;-79
2022/06/03 10:44:49;;;;;;;8.18;4.10;;;;;;;;;;5000764;28;20038;-81
2022/06/03 10:47:15;;;;;;;5.40;3.83;;;;;;;;;;5000270;28;20026;-80
2022/06/03 10:49:55;;;;;;;5.45;4.07;;;;;;;;;;5002155;28;20076;-80
2022/06/03 11:01:13;;;;;;;6.97;4.30;;;;;;;;;;5002167;28;20044;-81
2022/06/03 11:03:41;;;;;;;6.45;4.40;;;;;;;;;;5000724;28;20034;-80
2022/06/03 11:06:08;;;;;;;7.20;4.22;;;;;;;;;;5001050;28;20038;-81
2022/06/03 11:08:53;;;;;;;5.50;4.38;;;;;;;;;;4997345;28;20246;-79
2022/06/03 11:11:39;;;;;;;6.95;4.30;;;;;;;;;;4995820;28;20459;-79
2022/06/03 11:14:25;;;;;;;7.22;4.65;;;;;;;;;;5008145;28;20080;-78
2022/06/03 11:16:54;;;;;;;6.47;4.35;;;;;;;;;;5010974;28;20029;-77
2022/06/03 11:19:21;;;;;;;5.93;4.30;;;;;;;;;;5000267;28;20038;-80
2022/06/03 11:21:47;;;;;;;6.97;4.38;;;;;;;;;;5016904;28;20072;-79
2022/06/03 11:24:13;;;;;;;6.38;4.43;;;;;;;;;;5001297;28;20054;-78
2022/06/03 11:26:42;;;;;;;6.18;4.30;;;;;;;;;;4999924;28;20026;-78
2022/06/03 11:29:23;;;;;;;5.68;4.00;;;;;;;;;;5001244;28;20053;-79
2022/06/03 11:31:50;;;;;;;6.57;4.50;;;;;;;;;;4999747;28;20136;-78
2022/06/03 11:34:22;;;;;;;5.82;4.15;;;;;;;;;;5000174;28;20029;-80
2022/06/03 11:36:48;;;;;;;;;;;;;;;;;;5003447;28;20030;-78
2022/06/03 11:39:34;;;;;;;5.43;4.38;;;;;;;;;;5008897;28;20001;-79
2022/06/03 11:42:13;;;;;;;6.28;4.63;;;;;;;;;;5003784;28;20034;-79
2022/06/03 11:44:41;;;;;;;7.10;4.63;;;;;;;;;;5009638;28;20057;-78
2022/06/03 11:47:16;;;;;;;5.22;4.35;;;;;;;;;;5009375;28;20018;-78
2022/06/03 11:49:42;;;;;;;6.40;4.70;;;;;;;;;;5008849;28;20019;-78
2022/06/03 11:52:08;;;;;;;6.32;4.40;;;;;;;;;;5002687;28;20088;-81
2022/06/03 11:54:36;;;;;;;6.22;3.90;;;;;;;;;;4999513;28;20339;-80
2022/06/03 11:57:03;;;;;;;5.95;4.07;;;;;;;;;;4997553;28;20149;-79
2022/06/03 11:59:31;;;;;;;6.05;4.00;;;;;;;;;;5000133;28;20473;-81
2022/06/03 12:02:02;;;;;;;6.18;4.30;;;;;;;;;;4999952;28;20034;-82
2022/06/03 12:04:37;;;;;;;6.45;4.25;;;;;;;;;;4999001;28;20022;-81
2022/06/03 12:07:15;;;;;;;5.38;4.32;;;;;;;;;;4999699;28;20454;-80
2022/06/03 12:09:45;;;;;;;6.20;4.50;;;;;;;;;;5014435;28;20029;-81
2022/06/03 12:15:31;;;;;;;6.47;4.07;;;;;;;;;;5002219;28;20058;-79
2022/06/03 12:18:11;;;;;;;9.70;4.78;;;;;;;;;;5003343;28;20014;-77
2022/06/03 12:20:49;;;;;;;6.40;4.22;;;;;;;;;;5004064;28;20018;-80
2022/06/03 12:23:15;;;;;;;6.65;4.40;;;;;;;;;;5000307;28;20034;-81
2022/06/03 12:25:41;;;;;;;6.00;4.50;;;;;;;;;;4997759;28;20034;-79
2022/06/03 12:28:27;;;;;;;5.18;4.20;;;;;;;;;;5003869;28;20022;-78
2022/06/03 12:30:56;;;;;;;7.72;4.40;;;;;;;;;;4996253;28;20019;-78
2022/06/03 12:33:27;;;;;;;6.18;4.30;;;;;;;;;;4999181;28;20030;-80
2022/06/03 12:35:55;;;;;;;6.25;4.35;;;;;;;;;;5008090;28;20034;-80
2022/06/03 12:38:22;;;;;;;5.50;4.22;;;;;;;;;;4987040;28;20050;-80
2022/06/03 12:40:49;;;;;;;5.13;4.28;;;;;;;;;;4984488;28;20019;-81
2022/06/03 12:43:44;;;;;;;6.43;4.10;;;;;;;;;;4996760;28;20447;-80
2022/06/03 12:46:30;;;;;;;5.45;4.00;;;;;;;;;;5002762;28;20061;-82
2022/06/03 12:48:56;;;;;;;5.85;4.38;;;;;;;;;;5000672;28;20035;-81
2022/06/03 12:51:28;;;;;;;5.43;4.15;;;;;;;;;;5001197;28;20574;-79
2022/06/03 12:53:59;;;;;;;5.17;3.83;;;;;;;;;;5002180;28;20480;-80
2022/06/03 12:56:27;;;;;;;5.05;3.88;;;;;;;;;;5001934;28;20400;-80
2022/06/03 12:59:03;;;;;;;5.95;4.35;;;;;;;;;;5000125;28;20057;-81
2022/06/03 13:01:32;;;;;;;7.03;4.30;;;;;;;;;;5000206;28;20065;-79
2022/06/03 13:04:17;;;;;;;5.40;4.07;;;;;;;;;;5001815;28;20057;-79
2022/06/03 13:07:02;;;;;;;5.78;4.25;;;;;;;;;;5001344;28;20024;-81
2022/06/03 13:09:51;;;;;;;7.10;4.55;;;;;;;;;;5003102;28;20077;-80
2022/06/03 13:12:19;;;;;;;6.00;4.10;;;;;;;;;;4997487;28;20133;-81
2022/06/03 13:14:45;;;;;;;6.18;4.25;;;;;;;;;;5006460;28;20037;-80
2022/06/03 13:17:31;;;;;;;5.97;4.57;;;;;;;;;;5002520;28;20030;-79
2022/06/03 13:19:59;;;;;;;5.85;4.15;;;;;;;;;;5013210;28;20133;-81
2022/06/03 13:22:29;;;;;;;4.90;3.92;;;;;;;;;;5006100;28;20061;-82
2022/06/03 13:25:23;;;;;;;6.78;3.90;;;;;;;;;;5007682;28;20033;-82
2022/06/03 13:28:07;;;;;;;7.45;4.25;;;;;;;;;;4998696;28;20034;-81
2022/06/03 13:30:35;;;;;;;6.22;4.07;;;;;;;;;;5001514;28;20631;-80
2022/06/03 13:33:12;;;;;;;5.75;4.18;;;;;;;;;;5002893;28;20026;-79
2022/06/03 13:36:02;;;;;;;6.65;4.13;;;;;;;;;;5015732;28;20037;-80
2022/06/03 13:38:43;;;;;;;6.05;3.72;;;;;;;;;;4988547;28;20046;-80
2022/06/03 13:44:52;;;;;;;6.00;4.25;;;;;;;;;;4999273;28;20523;-81
2022/06/03 13:47:21;;;;;;;5.78;4.10;;;;;;;;;;5001274;28;20152;-81
2022/06/03 13:49:58;;;;;;;5.90;3.80;;;;;;;;;;5001025;28;20034;-82
2022/06/03 13:52:25;;;;;;;5.78;4.00;;;;;;;;;;4982094;28;20022;-82
2022/06/03 13:55:07;;;;;;;5.13;3.85;;;;;;;;;;4993662;28;20124;-78
2022/06/03 13:57:35;;;;;;;5.82;3.75;;;;;;;;;;5003711;28;20133;-80
2022/06/03 14:00:09;;;;;;;6.03;3.58;;;;;;;;;;5000794;28;20393;-80
2022/06/03 14:02:36;;;;;;;5.03;4.10;;;;;;;;;;5001326;28;20396;-81
2022/06/03 14:05:06;;;;;;;5.35;4.10;;;;;;;;;;5000770;28;20031;-80
2022/06/03 14:07:35;;;;;;;6.20;4.05;;;;;;;;;;5001086;28;20030;-81
2022/06/03 14:10:04;;;;;;;5.18;3.95;;;;;;;;;;5002863;28;20045;-82
2022/06/03 14:12:34;;;;;;;7.28;3.50;;;;;;;;;;5001678;28;20069;-81
2022/06/03 14:15:07;;;;;;;6.47;4.50;;;;;;;;;;5000119;28;20077;-80
2022/06/03 14:17:42;;;;;;;5.95;4.03;;;;;;;;;;5000637;28;20034;-81
2022/06/03 14:20:08;;;;;;;5.60;3.95;;;;;;;;;;5003840;28;20030;-82
2022/06/03 14:22:34;;;;;;;5.95;3.92;;;;;;;;;;5003967;28;20448;-82
2022/06/03 14:25:04;;;;;;;6.22;3.75;;;;;;;;;;5005510;28;20030;-79
2022/06/03 14:27:37;;;;;;;8.70;5.50;;;;;;;;;;5001526;28;20511;-80
2022/06/03 14:30:07;;;;;;;7.38;4.53;;;;;;;;;;5000534;28;20420;-81
2022/06/03 14:32:35;;;;;;;7.60;4.90;;;;;;;;;;4999102;28;20026;-77
2022/06/03 14:35:12;;;;;;;5.90;4.75;;;;;;;;;;4993669;28;20026;-79
2022/06/03 14:37:50;;;;;;;6.18;4.53;;;;;;;;;;4996603;28;20432;-81
2022/06/03 14:40:28;;;;;;;6.30;4.38;;;;;;;;;;5015061;28;20128;-81
2022/06/03 14:42:57;;;;;;;5.30;3.75;;;;;;;;;;4998545;28;20065;-81
2022/06/03 14:45:25;;;;;;;5.93;4.10;;;;;;;;;;4998404;28;20037;-78
2022/06/03 14:47:53;;;;;;;6.68;4.05;;;;;;;;;;4998175;28;20026;-80
2022/06/03 14:50:33;;;;;;;6.30;4.35;;;;;;;;;;4999351;28;20088;-80
2022/06/03 14:53:05;;;;;;;6.82;4.80;;;;;;;;;;4998358;28;20157;-79
2022/06/03 14:55:34;;;;;;;8.73;4.45;;;;;;;;;;4999287;28;20066;-81
2022/06/03 14:58:02;;;;;;;6.55;3.90;;;;;;;;;;4998768;28;20018;-80
2022/06/03 15:00:46;;;;;;;5.65;4.40;;;;;;;;;;4998273;28;20057;-79
2022/06/03 15:03:19;;;;;;;5.03;3.53;;;;;;;;;;4997566;28;20034;-78
2022/06/03 15:05:53;;;;;;;6.20;3.95;;;;;;;;;;4998143;28;20068;-82
2022/06/03 15:08:27;;;;;;;5.60;4.20;;;;;;;;;;4999357;28;20090;-80
2022/06/03 15:11:00;;;;;;;6.53;3.83;;;;;;;;;;4995095;28;20014;-80
2022/06/03 15:13:27;;;;;;;5.75;3.95;;;;;;;;;;4997631;28;20081;-80
2022/06/03 15:15:53;;;;;;;6.38;4.07;;;;;;;;;;4998300;28;20523;-79
2022/06/03 15:18:21;;;;;;;5.53;3.85;;;;;;;;;;4997047;28;20034;-79
2022/06/03 15:21:04;;;;;;;5.55;3.80;;;;;;;;;;5000025;28;20035;-79
2022/06/03 15:23:30;;;;;;;5.47;3.97;;;;;;;;;;4995781;28;20094;-81
2022/06/03 15:25:58;;;;;;;5.30;4.10;;;;;;;;;;4998324;28;20027;-78
2022/06/03 15:28:26;;;;;;;4.82;3.67;;;;;;;;;;4997910;28;20018;-81
2022/06/03 15:30:55;;;;;;;5.63;3.83;;;;;;;;;;5003753;28;20014;-78
2022/06/03 15:33:23;;;;;;;5.55;3.85;;;;;;;;;;5013337;28;20023;-79
2022/06/03 15:35:57;;;;;;;6.78;4.28;;;;;;;;;;5005564;28;20044;-78
2022/06/03 15:38:24;;;;;;;5.22;3.92;;;;;;;;;;4979583;28;20019;-79
2022/06/03 15:40:58;;;;;;;6.78;4.10;;;;;;;;;;4992207;28;20122;-79
2022/06/03 15:43:26;;;;;;;5.35;3.88;;;;;;;;;;4999147;28;20130;-80
2022/06/03 15:45:52;;;;;;;5.32;3.83;;;;;;;;;;4997683;28;20130;-80
2022/06/03 15:48:20;;;;;;;5.00;3.95;;;;;;;;;;4998414;28;20026;-81
2022/06/03 15:51:15;;;;;;;6.07;4.00;;;;;;;;;;4999907;28;20443;-80
2022/06/03 15:53:46;;;;;;;7.50;4.40;;;;;;;;;;4978257;28;20071;-81
2022/06/03 15:56:19;;;;;;;6.05;4.13;;;;;;;;;;4989499;28;20515;-81
2022/06/03 15:58:54;;;;;;;6.28;4.03;;;;;;;;;;5002198;28;20133;-81
2022/06/03 16:01:23;;;;;;;5.35;4.05;;;;;;;;;;5000068;28;20134;-81